createdAt,value
2018-11-12T00:02:14.132Z,2.27
2018-11-12T00:04:42.089Z,3.20
2018-11-12T00:07:09.998Z,4.03
2018-11-12T00:09:38.019Z,2.53
2018-11-12T00:12:05.941Z,2.57
2018-11-12T00:14:33.871Z,2.00
2018-11-12T00:17:01.808Z,2.97
2018-11-12T00:19:29.719Z,1.87
2018-11-12T00:21:57.677Z,1.60
2018-11-12T00:24:25.577Z,1.40
2018-11-12T00:26:53.475Z,3.80
2018-11-12T00:29:22.060Z,2.80
2018-11-12T00:31:49.967Z,4.23
2018-11-12T00:34:17.923Z,4.63
2018-11-12T00:36:45.860Z,5.13
2018-11-12T00:39:13.801Z,1.73
2018-11-12T00:41:42.255Z,4.40
2018-11-12T00:44:10.224Z,2.13
2018-11-12T00:46:38.220Z,2.37
2018-11-12T00:49:06.175Z,4.37
2018-11-12T00:51:34.192Z,2.83
2018-11-12T00:54:02.128Z,2.93
2018-11-12T00:56:30.078Z,2.23
2018-11-12T00:58:58.010Z,2.67
2018-11-12T01:01:25.927Z,3.53
2018-11-12T01:03:53.911Z,2.63
2018-11-12T01:06:21.788Z,1.60
2018-11-12T01:08:49.759Z,3.40
2018-11-12T01:11:17.755Z,2.27
2018-11-12T01:13:45.695Z,2.60
2018-11-12T01:16:13.638Z,2.33
2018-11-12T01:18:41.540Z,3.43
2018-11-12T01:21:09.484Z,3.60
2018-11-12T01:23:38.155Z,1.50
2018-11-12T01:26:06.124Z,3.13
2018-11-12T01:28:34.073Z,2.77
2018-11-12T01:31:04.580Z,2.90
2018-11-12T01:33:33.274Z,2.23
2018-11-12T01:36:01.191Z,2.13
2018-11-12T01:38:29.126Z,4.83
2018-11-12T01:40:57.039Z,4.23
2018-11-12T01:43:24.963Z,1.83
2018-11-12T01:45:52.900Z,7.13
2018-11-12T01:48:20.832Z,3.30
2018-11-12T01:50:48.765Z,7.87
2018-11-12T01:53:16.700Z,3.13
2018-11-12T01:55:44.612Z,2.10
2018-11-12T01:58:12.543Z,4.87
2018-11-12T02:00:40.452Z,2.10
2018-11-12T02:03:08.461Z,2.40
2018-11-12T02:05:36.391Z,3.00
2018-11-12T02:08:04.595Z,3.03
2018-11-12T02:10:32.563Z,2.87
2018-11-12T02:13:00.489Z,2.27
2018-11-12T02:15:28.424Z,4.30
2018-11-12T02:17:56.390Z,1.87
2018-11-12T02:20:24.317Z,3.43
2018-11-12T02:22:52.308Z,3.27
2018-11-12T02:25:20.533Z,1.77
2018-11-12T02:27:48.435Z,3.67
2018-11-12T02:30:21.603Z,1.30
2018-11-12T02:32:49.535Z,1.60
2018-11-12T02:35:17.460Z,1.77
2018-11-12T02:37:45.393Z,3.77
2018-11-12T02:40:13.648Z,3.77
2018-11-12T02:42:42.432Z,2.77
2018-11-12T02:45:11.720Z,4.07
2018-11-12T02:47:40.120Z,2.53
2018-11-12T02:50:09.079Z,4.23
2018-11-12T02:52:37.047Z,2.37
2018-11-12T02:55:06.132Z,5.23
2018-11-12T02:57:34.105Z,2.70
2018-11-12T03:00:01.991Z,4.93
2018-11-12T03:02:29.892Z,4.70
2018-11-12T03:04:57.812Z,2.83
2018-11-12T03:07:25.783Z,6.43
2018-11-12T03:09:53.651Z,4.23
2018-11-12T03:12:21.557Z,3.63
2018-11-12T03:14:49.472Z,4.87
2018-11-12T03:17:17.412Z,4.67
2018-11-12T03:19:45.315Z,4.93
2018-11-12T03:22:13.247Z,5.63
2018-11-12T03:24:41.144Z,3.53
2018-11-12T03:27:09.059Z,5.00
2018-11-12T03:29:36.995Z,5.33
2018-11-12T03:32:04.985Z,5.87
2018-11-12T03:34:32.900Z,7.87
2018-11-12T03:37:00.840Z,5.33
2018-11-12T03:39:28.858Z,6.47
2018-11-12T03:41:56.724Z,6.93
2018-11-12T03:44:24.676Z,7.70
2018-11-12T03:46:52.579Z,6.27
2018-11-12T03:49:20.543Z,5.33
2018-11-12T03:51:48.512Z,4.33
2018-11-12T03:54:16.427Z,7.07
2018-11-12T03:56:44.348Z,6.60
2018-11-12T03:59:12.301Z,6.70
2018-11-12T04:01:46.024Z,5.57
2018-11-12T04:04:15.995Z,6.77
2018-11-12T04:06:44.633Z,6.23
2018-11-12T04:09:12.828Z,6.30
2018-11-12T04:11:42.806Z,8.37
2018-11-12T04:14:11.516Z,4.80
2018-11-12T04:16:40.483Z,7.77
2018-11-12T04:19:08.474Z,4.97
2018-11-12T04:21:36.421Z,7.53
2018-11-12T04:24:04.654Z,5.47
2018-11-12T04:26:32.608Z,5.87
2018-11-12T04:29:00.927Z,3.30
2018-11-12T04:31:28.876Z,5.87
2018-11-12T04:33:56.884Z,6.40
2018-11-12T04:36:24.905Z,5.63
2018-11-12T04:38:52.811Z,5.63
2018-11-12T04:41:20.780Z,6.03
2018-11-12T04:43:48.695Z,7.33
2018-11-12T04:46:16.632Z,7.53
2018-11-12T04:48:44.581Z,6.67
2018-11-12T04:51:12.504Z,8.17
2018-11-12T04:53:40.447Z,6.53
2018-11-12T04:56:08.352Z,5.93
2018-11-12T04:58:36.284Z,5.97
2018-11-12T05:01:04.206Z,4.33
2018-11-12T05:03:32.160Z,7.43
2018-11-12T05:06:00.072Z,7.87
2018-11-12T05:08:28.007Z,7.90
2018-11-12T05:10:55.923Z,5.87
2018-11-12T05:13:23.872Z,4.87
2018-11-12T05:15:51.799Z,11.23
2018-11-12T05:18:19.724Z,6.60
2018-11-12T05:20:47.664Z,6.73
2018-11-12T05:23:15.604Z,10.20
2018-11-12T05:25:43.509Z,6.97
2018-11-12T05:28:11.460Z,16.67
2018-11-12T05:30:39.366Z,7.40
2018-11-12T05:33:07.312Z,7.23
2018-11-12T05:35:35.251Z,7.40
2018-11-12T05:38:03.247Z,5.83
2018-11-12T05:40:31.183Z,7.73
2018-11-12T05:42:59.199Z,10.90
2018-11-12T05:45:28.263Z,7.13
2018-11-12T05:47:56.232Z,9.03
2018-11-12T05:50:25.507Z,11.23
2018-11-12T05:52:55.863Z,11.77
2018-11-12T05:55:25.047Z,7.53
2018-11-12T05:57:52.951Z,6.50
2018-11-12T06:00:30.567Z,10.27
2018-11-12T06:02:59.530Z,9.13
2018-11-12T06:05:27.480Z,15.30
2018-11-12T06:07:55.435Z,9.30
2018-11-12T06:10:24.733Z,6.67
2018-11-12T06:12:52.756Z,7.47
2018-11-12T06:15:20.743Z,9.13
2018-11-12T06:17:49.568Z,10.10
2018-11-12T06:20:22.546Z,7.70
2018-11-12T06:22:50.584Z,7.33
2018-11-12T06:25:19.716Z,8.43
2018-11-12T06:27:47.863Z,9.07
2018-11-12T06:30:17.077Z,9.63
2018-11-12T06:32:45.003Z,11.30
2018-11-12T06:35:13.816Z,9.63
2018-11-12T06:37:42.323Z,11.77
2018-11-12T06:40:12.438Z,17.20
2018-11-12T06:42:40.487Z,11.53
2018-11-12T06:45:12.360Z,9.73
2018-11-12T06:47:40.680Z,9.37
2018-11-12T06:50:10.254Z,7.03
2018-11-12T06:52:38.263Z,9.00
2018-11-12T06:55:07.077Z,8.20
2018-11-12T06:57:34.991Z,6.73
2018-11-12T07:00:03.131Z,5.57
2018-11-12T07:02:35.298Z,7.93
2018-11-12T07:05:03.238Z,4.57
2018-11-12T07:07:31.554Z,7.87
2018-11-12T07:09:59.468Z,8.07
2018-11-12T07:12:27.440Z,12.07
2018-11-12T07:14:55.422Z,7.23
2018-11-12T07:17:23.352Z,8.63
2018-11-12T07:19:51.703Z,6.33
2018-11-12T07:22:19.648Z,11.33
2018-11-12T07:24:47.576Z,7.60
2018-11-12T07:27:15.509Z,7.17
2018-11-12T07:29:43.448Z,9.07
2018-11-12T07:32:11.388Z,7.47
2018-11-12T07:34:39.356Z,8.63
2018-11-12T07:37:07.315Z,14.47
2018-11-12T07:39:35.263Z,8.60
2018-11-12T07:42:03.322Z,10.70
2018-11-12T07:44:31.139Z,8.77
2018-11-12T07:46:59.051Z,9.73
2018-11-12T07:49:27.011Z,10.73
2018-11-12T07:51:54.920Z,10.07
2018-11-12T07:54:22.994Z,9.63
2018-11-12T07:56:50.874Z,12.40
2018-11-12T07:59:18.816Z,6.67
2018-11-12T08:01:46.749Z,4.10
2018-11-12T08:04:14.689Z,6.33
2018-11-12T08:06:42.603Z,5.33
2018-11-12T08:09:11.761Z,5.80
2018-11-12T08:11:39.871Z,6.17
2018-11-12T08:14:07.868Z,6.37
2018-11-12T08:16:35.804Z,4.87
2018-11-12T08:19:04.035Z,5.03
2018-11-12T08:21:32.040Z,4.43
2018-11-12T08:24:00.072Z,6.73
2018-11-12T08:26:28.283Z,9.20
2018-11-12T08:28:56.435Z,6.17
2018-11-12T08:31:24.343Z,9.70
2018-11-12T08:33:52.319Z,7.57
2018-11-12T08:36:20.321Z,5.77
2018-11-12T08:38:48.204Z,6.07
2018-11-12T08:41:16.212Z,6.27
2018-11-12T08:43:44.056Z,10.90
2018-11-12T08:46:12.101Z,4.23
2018-11-12T08:48:40.011Z,6.17
2018-11-12T08:51:07.996Z,5.90
2018-11-12T08:53:35.960Z,4.87
2018-11-12T08:56:03.880Z,6.63
2018-11-12T08:58:31.976Z,6.77
2018-11-12T09:01:00.025Z,5.37
2018-11-12T09:03:27.885Z,4.60
2018-11-12T09:05:55.861Z,4.27
2018-11-12T09:08:23.763Z,4.30
2018-11-12T09:10:51.701Z,6.30
2018-11-12T09:13:19.600Z,6.07
2018-11-12T09:15:47.575Z,4.67
2018-11-12T09:18:15.463Z,6.57
2018-11-12T09:20:43.371Z,5.30
2018-11-12T09:23:11.301Z,5.97
2018-11-12T09:25:39.218Z,4.60
2018-11-12T09:28:07.263Z,8.87
2018-11-12T09:30:35.076Z,3.00
2018-11-12T09:33:02.992Z,3.93
2018-11-12T09:35:32.023Z,4.60
2018-11-12T09:38:01.127Z,4.30
2018-11-12T09:40:31.220Z,8.43
2018-11-12T09:42:59.190Z,5.23
2018-11-12T09:45:27.079Z,4.80
2018-11-12T09:47:55.182Z,6.53
2018-11-12T09:50:24.187Z,4.97
2018-11-12T09:52:53.411Z,5.17
2018-11-12T09:55:22.404Z,3.83
2018-11-12T09:57:53.731Z,6.43
2018-11-12T10:00:22.021Z,4.73
2018-11-12T10:02:51.210Z,4.70
2018-11-12T10:05:19.895Z,4.27
2018-11-12T10:07:49.776Z,3.30
2018-11-12T10:10:30.501Z,2.23
2018-11-12T10:12:57.394Z,4.33
2018-11-12T10:15:26.680Z,6.10
2018-11-12T10:17:53.861Z,2.87
2018-11-12T10:20:19.931Z,3.17
2018-11-12T10:22:48.565Z,4.20
2018-11-12T10:25:16.652Z,5.40
2018-11-12T10:27:44.701Z,3.93
2018-11-12T10:30:12.632Z,4.30
2018-11-12T10:32:40.581Z,2.50
2018-11-12T10:35:09.231Z,4.13
2018-11-12T10:37:37.619Z,2.77
2018-11-12T10:40:08.135Z,3.37
2018-11-12T10:42:36.105Z,2.27
2018-11-12T10:45:04.016Z,2.60
2018-11-12T10:47:31.951Z,3.73
2018-11-12T10:49:59.879Z,2.83
2018-11-12T10:52:27.836Z,2.33
2018-11-12T10:55:04.893Z,3.03
2018-11-12T10:57:23.728Z,3.80
2018-11-12T10:59:51.748Z,2.60
2018-11-12T11:02:25.100Z,6.00
2018-11-12T11:04:53.034Z,3.60
2018-11-12T11:07:20.967Z,5.37
2018-11-12T11:09:48.994Z,3.13
2018-11-12T11:12:16.939Z,3.77
2018-11-12T11:14:44.910Z,3.50
2018-11-12T11:17:12.851Z,4.43
2018-11-12T11:19:40.842Z,4.57
2018-11-12T11:22:08.755Z,4.17
2018-11-12T11:24:36.717Z,5.37
2018-11-12T11:27:04.727Z,2.93
2018-11-12T11:29:32.659Z,4.87
2018-11-12T11:32:00.676Z,1.53
2018-11-12T11:34:28.599Z,3.67
2018-11-12T11:36:56.572Z,4.97
2018-11-12T11:39:24.501Z,4.97
2018-11-12T11:41:52.422Z,2.87
2018-11-12T11:44:20.392Z,2.43
2018-11-12T11:46:48.363Z,6.13
2018-11-12T11:49:16.343Z,1.87
2018-11-12T11:51:44.316Z,5.23
2018-11-12T11:54:12.295Z,4.73
2018-11-12T11:56:40.391Z,1.00
2018-11-12T11:59:08.443Z,1.83
2018-11-12T12:01:36.403Z,1.67
2018-11-12T12:04:04.675Z,3.50
2018-11-12T12:06:32.640Z,2.10
2018-11-12T12:09:00.590Z,1.80
2018-11-12T12:11:28.518Z,2.37
2018-11-12T12:13:56.480Z,2.90
2018-11-12T12:16:24.447Z,4.37
2018-11-12T12:18:52.454Z,3.07
2018-11-12T12:21:20.468Z,3.90
2018-11-12T12:23:48.390Z,2.17
2018-11-12T12:26:16.344Z,1.63
2018-11-12T12:28:44.576Z,2.37
2018-11-12T12:31:12.840Z,4.80
2018-11-12T12:33:40.839Z,2.30
2018-11-12T12:36:08.844Z,4.83
2018-11-12T12:38:36.707Z,1.53
2018-11-12T12:41:04.710Z,5.43
2018-11-12T12:43:32.640Z,3.43
2018-11-12T12:46:00.613Z,4.43
2018-11-12T12:48:28.479Z,3.33
2018-11-12T12:50:56.403Z,3.90
2018-11-12T12:53:24.347Z,3.83
2018-11-12T12:55:52.465Z,3.30
2018-11-12T12:58:20.321Z,1.53
2018-11-12T13:00:48.139Z,1.13
2018-11-12T13:03:16.044Z,2.67
2018-11-12T13:05:43.965Z,3.40
2018-11-12T13:08:11.899Z,3.23
2018-11-12T13:10:39.836Z,2.07
2018-11-12T13:13:07.756Z,4.97
2018-11-12T13:15:35.703Z,4.67
2018-11-12T13:18:03.647Z,1.93
2018-11-12T13:20:31.611Z,3.23
2018-11-12T13:22:59.536Z,2.80
2018-11-12T13:25:27.446Z,2.60
2018-11-12T13:27:55.366Z,4.10
2018-11-12T13:30:24.082Z,3.77
2018-11-12T13:32:52.281Z,4.10
2018-11-12T13:35:23.304Z,3.33
2018-11-12T13:37:51.263Z,2.10
2018-11-12T13:40:20.680Z,4.17
2018-11-12T13:42:54.063Z,3.13
2018-11-12T13:45:22.347Z,1.13
2018-11-12T13:47:50.292Z,2.13
2018-11-12T13:50:19.593Z,2.17
2018-11-12T13:52:48.038Z,1.60
2018-11-12T13:55:17.064Z,1.87
2018-11-12T13:57:45.040Z,3.23
2018-11-12T14:00:14.558Z,2.83
2018-11-12T14:02:43.345Z,5.63
2018-11-12T14:05:13.403Z,8.97
2018-11-12T14:07:41.844Z,14.73
2018-11-12T14:10:11.224Z,17.53
2018-11-12T14:12:39.804Z,19.67
2018-11-12T14:15:09.763Z,17.23
2018-11-12T14:17:37.995Z,21.93
2018-11-12T14:20:06.138Z,25.40
2018-11-12T14:22:34.058Z,28.07
2018-11-12T14:25:01.996Z,28.67
2018-11-12T14:27:29.927Z,23.93
2018-11-12T14:29:57.847Z,22.73
2018-11-12T14:32:25.759Z,29.20
2018-11-12T14:34:53.736Z,38.80
2018-11-12T14:37:21.692Z,40.33
2018-11-12T14:39:50.143Z,48.97
2018-11-12T14:42:18.084Z,47.63
2018-11-12T14:44:46.027Z,48.07
2018-11-12T14:47:13.959Z,57.97
2018-11-12T14:49:41.885Z,56.77
2018-11-12T14:52:09.922Z,55.83
2018-11-12T14:54:37.848Z,63.17
2018-11-12T14:57:05.894Z,69.70
2018-11-12T14:59:33.815Z,78.97
2018-11-12T15:02:01.755Z,67.50
2018-11-12T15:04:29.675Z,88.63
2018-11-12T15:06:57.603Z,71.80
2018-11-12T15:09:25.531Z,83.87
2018-11-12T15:11:53.474Z,80.33
2018-11-12T15:14:21.384Z,76.30
2018-11-12T15:16:49.323Z,79.60
2018-11-12T15:19:17.257Z,80.03
2018-11-12T15:21:45.185Z,78.60
2018-11-12T15:24:13.127Z,87.63
2018-11-12T15:26:41.052Z,84.70
2018-11-12T15:29:09.007Z,76.83
2018-11-12T15:31:36.921Z,72.70
2018-11-12T15:34:05.309Z,91.83
2018-11-12T15:36:33.308Z,78.13
2018-11-12T15:39:01.165Z,73.00
2018-11-12T15:41:29.129Z,75.63
2018-11-12T15:43:57.144Z,77.40
2018-11-12T15:46:25.104Z,79.47
2018-11-12T15:48:53.040Z,71.47
2018-11-12T15:51:20.980Z,66.30
2018-11-12T15:53:48.885Z,65.33
2018-11-12T15:56:16.862Z,68.47
2018-11-12T15:58:44.812Z,71.33
2018-11-12T16:01:12.785Z,61.07
2018-11-12T16:03:40.707Z,61.90
2018-11-12T16:06:08.741Z,53.17
2018-11-12T16:08:36.643Z,56.57
2018-11-12T16:11:04.596Z,55.37
2018-11-12T16:13:32.525Z,57.33
2018-11-12T16:16:00.463Z,41.27
2018-11-12T16:18:28.404Z,43.07
2018-11-12T16:20:56.344Z,45.10
2018-11-12T16:23:24.311Z,44.30
2018-11-12T16:25:52.259Z,41.23
2018-11-12T16:28:20.167Z,38.83
2018-11-12T16:30:48.143Z,40.53
2018-11-12T16:33:16.096Z,33.07
2018-11-12T16:35:44.023Z,37.53
2018-11-12T16:38:11.984Z,34.43
2018-11-12T16:40:39.923Z,36.50
2018-11-12T16:43:07.895Z,40.37
2018-11-12T16:45:35.843Z,37.53
2018-11-12T16:48:03.820Z,41.43
2018-11-12T16:50:31.754Z,36.70
2018-11-12T16:52:59.697Z,32.53
2018-11-12T16:55:27.664Z,40.50
2018-11-12T16:57:55.556Z,32.27
2018-11-12T17:00:24.332Z,36.17
2018-11-12T17:02:52.271Z,38.60
2018-11-12T17:05:21.704Z,39.07
2018-11-12T17:07:49.628Z,38.87
2018-11-12T17:10:18.736Z,31.77
2018-11-12T17:12:47.443Z,35.20
2018-11-12T17:15:15.697Z,36.50
2018-11-12T17:17:43.736Z,31.50
2018-11-12T17:20:12.964Z,35.30
2018-11-12T17:22:40.887Z,29.97
2018-11-12T17:25:09.957Z,29.63
2018-11-12T17:27:37.888Z,30.63
2018-11-12T17:30:08.731Z,31.83
2018-11-12T17:32:36.664Z,28.07
2018-11-12T17:35:05.847Z,28.13
2018-11-12T17:37:33.807Z,24.27
2018-11-12T17:40:01.755Z,18.57
2018-11-12T17:42:29.667Z,15.10
2018-11-12T17:44:57.599Z,19.40
2018-11-12T17:47:25.511Z,14.63
2018-11-12T17:49:53.484Z,18.63
2018-11-12T17:52:21.451Z,14.07
2018-11-12T17:54:49.375Z,16.20
2018-11-12T17:57:17.307Z,11.80
2018-11-12T17:59:45.213Z,10.73
2018-11-12T18:02:13.169Z,10.83
2018-11-12T18:04:41.099Z,10.23
2018-11-12T18:07:09.121Z,10.30
2018-11-12T18:09:36.960Z,13.00
2018-11-12T18:12:05.612Z,11.47
2018-11-12T18:14:33.594Z,9.97
2018-11-12T18:17:01.520Z,9.47
2018-11-12T18:19:29.453Z,11.70
2018-11-12T18:21:57.391Z,11.73
2018-11-12T18:24:25.323Z,11.93
2018-11-12T18:26:53.248Z,10.60
2018-11-12T18:29:21.237Z,14.20
2018-11-12T18:31:49.246Z,13.93
2018-11-12T18:34:17.077Z,12.73
2018-11-12T18:36:45.005Z,13.67
2018-11-12T18:39:12.941Z,17.60
2018-11-12T18:41:40.867Z,18.43
2018-11-12T18:44:08.828Z,17.43
2018-11-12T18:46:36.764Z,19.03
2018-11-12T18:49:04.927Z,17.13
2018-11-12T18:51:32.859Z,23.47
2018-11-12T18:54:00.804Z,21.40
2018-11-12T18:56:28.711Z,20.10
2018-11-12T18:58:56.643Z,21.63
2018-11-12T19:01:24.574Z,20.03
2018-11-12T19:03:52.525Z,22.97
2018-11-12T19:06:20.464Z,20.30
2018-11-12T19:08:48.436Z,26.10
2018-11-12T19:11:16.391Z,21.23
2018-11-12T19:13:44.348Z,18.20
2018-11-12T19:16:12.281Z,19.47
2018-11-12T19:18:40.206Z,22.27
2018-11-12T19:21:08.236Z,22.80
2018-11-12T19:23:36.094Z,21.83
2018-11-12T19:26:04.024Z,24.50
2018-11-12T19:28:32.028Z,26.50
2018-11-12T19:30:59.939Z,28.53
2018-11-12T19:33:27.883Z,28.07
2018-11-12T19:35:55.811Z,31.13
2018-11-12T19:38:23.905Z,29.73
2018-11-12T19:40:51.863Z,27.57
2018-11-12T19:43:19.735Z,29.77
2018-11-12T19:45:47.670Z,23.30
2018-11-12T19:48:15.587Z,26.83
2018-11-12T19:50:43.510Z,25.77
2018-11-12T19:53:11.451Z,26.93
2018-11-12T19:55:39.383Z,26.07
2018-11-12T19:58:07.303Z,31.30
2018-11-12T20:00:35.239Z,24.77
2018-11-12T20:03:03.344Z,27.30
2018-11-12T20:05:31.255Z,25.97
2018-11-12T20:07:59.252Z,26.40
2018-11-12T20:10:27.184Z,29.63
2018-11-12T20:12:55.125Z,32.53
2018-11-12T20:15:23.937Z,53.90
2018-11-12T20:17:52.729Z,47.47
2018-11-12T20:20:22.033Z,44.53
2018-11-12T20:22:50.507Z,45.90
2018-11-12T20:25:19.233Z,46.00
2018-11-12T20:27:47.818Z,39.40
2018-11-12T20:30:18.664Z,39.70
2018-11-12T20:32:47.000Z,42.50
2018-11-12T20:35:15.279Z,36.27
2018-11-12T20:37:43.220Z,35.47
2018-11-12T20:40:12.236Z,35.50
2018-11-12T20:42:40.517Z,33.80
2018-11-12T20:45:09.965Z,32.70
2018-11-12T20:47:38.167Z,38.07
2018-11-12T20:50:06.939Z,39.40
2018-11-12T20:52:34.956Z,36.67
2018-11-12T20:55:02.847Z,36.50
2018-11-12T20:57:30.816Z,37.33
2018-11-12T20:59:58.780Z,34.17
2018-11-12T21:02:26.723Z,39.50
2018-11-12T21:04:54.715Z,46.27
2018-11-12T21:07:22.707Z,39.57
2018-11-12T21:09:50.627Z,45.00
2018-11-12T21:12:18.588Z,41.97
2018-11-12T21:14:46.536Z,35.47
2018-11-12T21:17:14.460Z,41.27
2018-11-12T21:19:42.410Z,45.47
2018-11-12T21:22:12.172Z,41.90
2018-11-12T21:24:40.134Z,38.13
2018-11-12T21:27:08.076Z,43.43
2018-11-12T21:29:36.038Z,43.50
2018-11-12T21:32:04.063Z,47.60
2018-11-12T21:34:32.078Z,42.97
2018-11-12T21:37:00.093Z,40.23
2018-11-12T21:39:27.995Z,39.97
2018-11-12T21:41:55.933Z,38.77
2018-11-12T21:44:23.867Z,45.07
2018-11-12T21:46:51.831Z,40.30
2018-11-12T21:49:19.791Z,46.30
2018-11-12T21:51:47.715Z,45.10
2018-11-12T21:54:15.669Z,45.17
2018-11-12T21:56:43.635Z,44.83
2018-11-12T21:59:11.565Z,39.47
2018-11-12T22:01:39.488Z,33.20
2018-11-12T22:04:07.488Z,38.50
2018-11-12T22:06:35.455Z,39.13
2018-11-12T22:09:05.437Z,37.90
2018-11-12T22:11:33.371Z,36.73
2018-11-12T22:14:01.343Z,36.40
2018-11-12T22:16:29.285Z,40.30
2018-11-12T22:18:57.239Z,39.23
2018-11-12T22:21:25.168Z,41.73
2018-11-12T22:23:53.199Z,45.63
2018-11-12T22:26:21.121Z,43.10
2018-11-12T22:28:49.076Z,36.73
2018-11-12T22:31:17.006Z,41.63
2018-11-12T22:33:44.911Z,44.87
2018-11-12T22:36:12.823Z,47.07
2018-11-12T22:38:40.839Z,47.53
2018-11-12T22:41:08.783Z,44.57
2018-11-12T22:43:37.199Z,44.93
2018-11-12T22:46:05.366Z,53.33
2018-11-12T22:48:33.287Z,50.13
2018-11-12T22:51:01.195Z,58.00
2018-11-12T22:53:29.119Z,55.43
2018-11-12T22:55:57.032Z,52.70
2018-11-12T22:58:24.974Z,52.70
2018-11-12T23:00:52.904Z,59.77
2018-11-12T23:03:20.854Z,56.37
2018-11-12T23:05:48.773Z,58.67
2018-11-12T23:08:16.670Z,57.07
2018-11-12T23:10:44.612Z,54.90
2018-11-12T23:13:12.536Z,56.83
2018-11-12T23:15:40.473Z,61.97
2018-11-12T23:18:08.396Z,63.20
2018-11-12T23:20:36.375Z,66.07
2018-11-12T23:23:04.627Z,67.10
2018-11-12T23:25:32.547Z,61.80
2018-11-12T23:28:00.507Z,71.20
2018-11-12T23:30:28.427Z,73.43
2018-11-12T23:32:56.383Z,68.60
2018-11-12T23:35:25.311Z,69.03
2018-11-12T23:37:53.224Z,65.33
2018-11-12T23:40:21.235Z,64.00
2018-11-12T23:42:49.176Z,70.43
2018-11-12T23:45:17.216Z,61.57
2018-11-12T23:47:45.188Z,65.43
2018-11-12T23:50:15.082Z,72.73
2018-11-12T23:52:43.683Z,66.03
2018-11-12T23:55:12.039Z,73.00
2018-11-12T23:57:39.986Z,71.13
